Time;durP1;ratioP1;P1;durP2;ratioP2;P2;SDS_P1;SDS_P2;PMS_P1;PMS_P2;Temp;Humidity;BMP_temperature;BMP_pressure;BME280_temperature;BME280_humidity;BME280_pressure;Samples;Min_cycle;Max_cycle;Signal;HPM_P1;HPM_P2
2021/12/13 00:00:56;;;;;;;10.90;5.30;;;11.60;99.90;;;;;;5055446;28;19904;-76
2021/12/13 00:03:28;;;;;;;11.75;5.72;;;11.60;99.90;;;;;;5054181;28;20108;-74
2021/12/13 00:06:01;;;;;;;14.48;6.03;;;11.70;99.90;;;;;;5055597;28;20044;-76
2021/12/13 00:08:32;;;;;;;12.95;5.53;;;11.70;99.90;;;;;;5055230;28;20504;-79
2021/12/13 00:11:14;;;;;;;10.38;5.68;;;11.70;99.90;;;;;;5055418;28;20033;-77
2021/12/13 00:13:51;;;;;;;11.52;5.85;;;11.60;99.90;;;;;;5055186;28;20074;-81
2021/12/13 00:16:37;;;;;;;10.68;6.00;;;11.70;99.90;;;;;;5055420;28;20024;-75
2021/12/13 00:19:08;;;;;;;10.30;5.57;;;11.70;99.90;;;;;;5055354;28;20021;-78
2021/12/13 00:21:49;;;;;;;11.98;5.60;;;11.60;99.90;;;;;;5055064;28;20033;-77
2021/12/13 00:24:25;;;;;;;13.75;5.53;;;11.60;99.90;;;;;;5053452;28;20398;-75
2021/12/13 00:26:59;;;;;;;11.07;5.57;;;11.70;99.90;;;;;;5054901;28;20033;-77
2021/12/13 00:29:33;;;;;;;9.77;5.88;;;11.70;99.90;;;;;;5055087;28;20041;-74
2021/12/13 00:32:10;;;;;;;9.75;5.13;;;11.70;99.90;;;;;;5055343;28;20500;-78
2021/12/13 00:35:04;;;;;;;9.93;5.00;;;11.60;99.90;;;;;;5055054;28;20075;-76
2021/12/13 00:37:42;;;;;;;10.15;5.05;;;11.70;99.90;;;;;;5054427;28;20041;-76
2021/12/13 00:40:16;;;;;;;10.40;5.43;;;11.70;99.90;;;;;;5054945;28;20499;-77
2021/12/13 00:43:00;;;;;;;9.95;4.30;;;11.60;99.90;;;;;;5054889;28;20029;-79
2021/12/13 00:45:30;;;;;;;10.40;5.57;;;11.60;99.90;;;;;;5055143;28;20021;-75
2021/12/13 00:48:00;;;;;;;12.35;5.05;;;11.60;99.90;;;;;;5054484;28;20392;-76
2021/12/13 00:50:50;;;;;;;10.50;4.55;;;11.70;99.90;;;;;;5054383;28;20029;-76
2021/12/13 00:53:21;;;;;;;7.78;4.18;;;11.70;99.90;;;;;;5054728;28;20477;-78
2021/12/13 00:55:48;;;;;;;11.90;6.15;;;11.60;99.90;;;;;;5054316;28;20045;-76
2021/12/13 00:58:21;;;;;;;9.68;4.40;;;11.60;99.90;;;;;;5054296;28;20013;-77
2021/12/13 01:01:05;;;;;;;7.50;4.35;;;11.60;99.90;;;;;;5054848;28;20024;-78
2021/12/13 01:03:46;;;;;;;9.02;3.97;;;11.60;99.90;;;;;;5054461;28;20033;-76
2021/12/13 01:06:49;;;;;;;8.85;4.10;;;11.60;99.90;;;;;;5054447;28;20381;-75
2021/12/13 01:09:49;;;;;;;12.05;3.72;;;11.60;99.90;;;;;;5054342;28;20039;-75
2021/12/13 01:12:18;;;;;;;5.75;2.90;;;11.60;99.90;;;;;;5054184;28;20055;-79
2021/12/13 01:14:58;;;;;;;5.78;2.75;;;11.70;99.90;;;;;;5053758;28;20025;-76
2021/12/13 01:17:40;;;;;;;7.00;2.28;;;11.70;99.90;;;;;;5054288;28;20100;-77
2021/12/13 01:20:25;;;;;;;5.13;2.63;;;11.70;99.90;;;;;;5052354;28;20146;-75
2021/12/13 01:23:14;;;;;;;9.27;3.17;;;11.70;99.90;;;;;;5052373;28;20028;-75
2021/12/13 01:26:00;;;;;;;4.07;2.10;;;11.60;99.90;;;;;;5054130;28;20091;-79
2021/12/13 01:28:29;;;;;;;5.78;2.63;;;11.60;99.90;;;;;;5053561;28;20041;-78
2021/12/13 01:31:07;;;;;;;6.10;2.60;;;11.50;99.90;;;;;;5054170;28;20087;-79
2021/12/13 01:33:33;;;;;;;4.82;2.50;;;11.40;99.90;;;;;;5053992;28;20091;-78
2021/12/13 01:36:03;;;;;;;5.65;2.80;;;11.50;99.90;;;;;;5053633;28;20063;-78
2021/12/13 01:38:36;;;;;;;7.20;2.72;;;11.50;99.90;;;;;;5054194;28;20055;-78
2021/12/13 01:41:10;;;;;;;10.52;3.88;;;11.50;99.90;;;;;;5053866;28;20362;-80
2021/12/13 01:44:00;;;;;;;8.82;3.22;;;11.50;99.90;;;;;;5053499;28;20551;-76
2021/12/13 01:46:26;;;;;;;7.97;3.78;;;11.50;99.90;;;;;;5053803;28;20028;-75
2021/12/13 01:48:53;;;;;;;6.18;3.08;;;11.50;99.90;;;;;;5053424;28;20021;-75
2021/12/13 01:51:26;;;;;;;8.60;3.65;;;11.50;99.90;;;;;;5053590;28;20025;-79
2021/12/13 01:53:57;;;;;;;6.75;3.58;;;11.50;99.90;;;;;;5053671;28;20025;-76
2021/12/13 01:56:59;;;;;;;7.03;3.40;;;11.50;99.90;;;;;;5053915;28;20033;-78
2021/12/13 02:02:22;;;;;;;6.03;3.60;;;11.50;99.90;;;;;;5053868;28;20068;-77
2021/12/13 02:05:01;;;;;;;7.10;3.38;;;11.50;99.90;;;;;;5052690;28;20044;-77
2021/12/13 02:07:35;;;;;;;5.57;3.15;;;11.50;99.90;;;;;;5053791;28;20478;-79
2021/12/13 02:10:01;;;;;;;8.32;3.92;;;11.50;99.90;;;;;;5053267;28;20071;-80
2021/12/13 02:12:29;;;;;;;6.53;3.17;;;11.40;99.90;;;;;;5053096;28;20060;-77
2021/12/13 02:17:44;;;;;;;4.75;2.72;;;11.50;99.90;;;;;;5053384;28;20091;-78
2021/12/13 02:20:22;;;;;;;4.80;2.75;;;11.50;99.90;;;;;;5053093;28;20037;-75
2021/12/13 02:22:53;;;;;;;7.45;2.60;;;11.60;99.90;;;;;;5053629;28;20036;-76
2021/12/13 02:25:24;;;;;;;3.83;2.45;;;11.50;99.90;;;;;;5053280;28;20025;-76
2021/12/13 02:27:59;;;;;;;6.18;2.92;;;11.40;99.90;;;;;;5055887;28;20440;-78
2021/12/13 02:30:51;;;;;;;6.10;2.65;;;11.40;99.90;;;;;;5055730;28;20048;-79
2021/12/13 02:33:25;;;;;;;5.68;2.80;;;11.40;99.90;;;;;;5057323;28;20087;-76
2021/12/13 02:35:58;;;;;;;5.07;2.75;;;11.50;99.90;;;;;;5057086;28;20025;-78
2021/12/13 02:38:26;;;;;;;5.15;2.90;;;11.50;99.90;;;;;;5057015;28;20021;-76
2021/12/13 02:40:52;;;;;;;4.97;2.15;;;11.50;99.90;;;;;;5057084;28;20489;-78
2021/12/13 02:43:24;;;;;;;8.75;4.68;;;11.50;99.90;;;;;;5055566;28;20032;-78
2021/12/13 02:45:53;;;;;;;11.35;5.80;;;11.50;99.90;;;;;;5057089;28;20104;-79
2021/12/13 02:48:26;;;;;;;32.38;22.45;;;11.50;99.90;;;;;;5056732;28;20029;-77
2021/12/13 02:51:19;;;;;;;60.65;39.53;;;11.50;99.90;;;;;;5056924;28;20484;-79
2021/12/13 02:53:48;;;;;;;47.92;28.27;;;11.40;99.90;;;;;;5055356;28;20036;-78
2021/12/13 02:56:16;;;;;;;46.33;29.52;;;11.40;99.90;;;;;;5056604;28;20016;-80
2021/12/13 02:58:42;;;;;;;5.82;3.75;;;11.40;99.90;;;;;;5056885;28;20385;-78
2021/12/13 03:01:11;;;;;;;9.15;6.03;;;11.40;99.90;;;;;;5055230;28;20040;-76
2021/12/13 03:03:43;;;;;;;6.38;4.28;;;11.40;99.90;;;;;;5056460;28;20500;-75
2021/12/13 03:06:12;;;;;;;9.88;5.38;;;11.40;99.90;;;;;;5056430;28;20021;-77
2021/12/13 03:08:43;;;;;;;16.17;14.27;;;11.40;99.90;;;;;;5056371;28;20028;-79
2021/12/13 03:11:22;;;;;;;10.80;7.32;;;11.40;99.90;;;;;;5056558;28;20108;-76
2021/12/13 03:13:53;;;;;;;11.70;6.70;;;11.40;99.90;;;;;;5056580;28;20028;-79
2021/12/13 03:16:22;;;;;;;8.80;6.25;;;11.40;99.90;;;;;;5056266;28;20091;-77
2021/12/13 03:19:06;;;;;;;9.98;5.75;;;11.40;99.90;;;;;;5056476;28;20029;-78
2021/12/13 03:22:02;;;;;;;5.38;3.58;;;11.30;99.90;;;;;;5056749;28;20044;-79
2021/12/13 03:24:51;;;;;;;7.70;3.72;;;11.30;99.90;;;;;;5056319;28;20032;-80
2021/12/13 03:27:31;;;;;;;9.73;5.68;;;11.30;99.90;;;;;;5056337;28;20519;-78
2021/12/13 03:30:12;;;;;;;9.10;4.30;;;11.40;99.90;;;;;;5056049;28;20025;-76
2021/12/13 03:33:02;;;;;;;9.63;6.82;;;11.30;99.90;;;;;;5055937;28;20477;-79
2021/12/13 03:35:37;;;;;;;11.18;6.15;;;11.30;99.90;;;;;;5056187;28;20378;-76
2021/12/13 03:38:25;;;;;;;9.60;6.53;;;11.30;99.90;;;;;;5056001;28;20056;-77
2021/12/13 03:40:51;;;;;;;15.77;11.55;;;11.40;99.90;;;;;;5055786;28;20025;-77
2021/12/13 03:43:25;;;;;;;9.93;6.70;;;11.40;99.90;;;;;;5056033;28;20032;-78
2021/12/13 03:45:56;;;;;;;11.95;8.50;;;11.40;99.90;;;;;;5055988;28;20021;-76
2021/12/13 03:48:25;;;;;;;10.80;6.50;;;11.40;99.90;;;;;;5055696;28;20029;-76
2021/12/13 03:50:56;;;;;;;12.82;6.15;;;11.30;99.90;;;;;;5055461;28;20056;-77
2021/12/13 03:53:24;;;;;;;9.40;6.40;;;11.30;99.90;;;;;;5055575;28;20021;-79
2021/12/13 03:55:56;;;;;;;10.88;6.63;;;11.40;99.90;;;;;;5055502;28;20050;-75
2021/12/13 03:58:24;;;;;;;14.05;7.40;;;11.40;99.90;;;;;;5055499;28;20063;-77
2021/12/13 04:01:01;;;;;;;12.25;7.18;;;11.40;99.90;;;;;;5055705;28;20056;-78
2021/12/13 04:03:27;;;;;;;15.65;7.88;;;11.40;99.90;;;;;;5055951;28;20056;-76
2021/12/13 04:05:55;;;;;;;11.82;6.57;;;11.40;99.90;;;;;;5055261;28;20103;-77
2021/12/13 04:08:21;;;;;;;11.52;6.70;;;11.40;99.90;;;;;;5055269;28;20505;-79
2021/12/13 04:10:54;;;;;;;11.70;7.18;;;11.40;99.90;;;;;;5055395;28;20519;-77
2021/12/13 04:13:24;;;;;;;12.77;6.97;;;11.40;99.90;;;;;;5055184;28;20017;-79
2021/12/13 04:16:15;;;;;;;11.48;7.30;;;11.40;99.90;;;;;;5055138;28;20021;-80
2021/12/13 04:19:21;;;;;;;11.98;6.88;;;11.40;99.90;;;;;;5053565;28;20025;-76
2021/12/13 04:21:58;;;;;;;11.15;7.05;;;11.30;99.90;;;;;;5036138;28;20029;-75
2021/12/13 04:24:30;;;;;;;12.82;7.38;;;11.20;99.90;;;;;;5053201;28;20031;-77
2021/12/13 04:27:00;;;;;;;13.10;7.97;;;11.20;99.90;;;;;;5053864;28;20040;-80
2021/12/13 04:29:36;;;;;;;13.98;8.65;;;11.20;99.90;;;;;;5054902;28;20048;-76
2021/12/13 04:32:16;;;;;;;15.13;9.13;;;11.10;99.90;;;;;;5055080;28;20033;-76
2021/12/13 04:34:42;;;;;;;15.07;9.95;;;11.10;99.90;;;;;;5055060;28;20017;-77
2021/12/13 04:37:22;;;;;;;17.02;10.20;;;11.10;99.90;;;;;;5054981;28;20028;-77
2021/12/13 04:39:53;;;;;;;16.30;11.10;;;11.10;99.90;;;;;;5055275;28;20021;-80
2021/12/13 04:42:21;;;;;;;17.30;10.98;;;11.10;99.90;;;;;;5053028;28;20040;-79
2021/12/13 04:44:49;;;;;;;17.17;11.13;;;11.00;99.90;;;;;;5054568;28;20392;-76
2021/12/13 04:47:23;;;;;;;17.25;11.32;;;11.00;99.90;;;;;;5054529;28;20029;-79
2021/12/13 04:50:00;;;;;;;18.17;12.25;;;11.00;99.90;;;;;;5052320;28;20436;-75
2021/12/13 04:52:25;;;;;;;17.98;12.20;;;11.00;99.90;;;;;;5054912;28;20029;-77
2021/12/13 04:54:54;;;;;;;23.10;13.95;;;11.00;99.90;;;;;;5054349;28;20028;-78
2021/12/13 04:57:22;;;;;;;21.65;12.35;;;11.10;99.90;;;;;;5054320;28;20409;-76
2021/12/13 04:59:52;;;;;;;20.17;12.80;;;11.00;99.90;;;;;;5054261;28;20075;-76
2021/12/13 05:02:18;;;;;;;19.55;12.40;;;11.00;99.90;;;;;;5054235;28;20087;-79
2021/12/13 05:04:44;;;;;;;18.00;12.48;;;11.00;99.90;;;;;;5052862;28;20388;-77
2021/12/13 05:07:10;;;;;;;19.88;12.30;;;11.00;99.90;;;;;;5054126;28;20058;-75
2021/12/13 05:09:36;;;;;;;21.35;13.43;;;11.00;99.90;;;;;;5054065;28;20113;-75
2021/12/13 05:12:01;;;;;;;17.92;12.05;;;11.00;99.90;;;;;;5053965;28;20039;-77
2021/12/13 05:14:49;;;;;;;18.90;12.43;;;11.00;99.90;;;;;;5054019;28;20029;-79
2021/12/13 05:17:26;;;;;;;21.17;13.32;;;11.00;99.90;;;;;;5054171;28;20021;-77
2021/12/13 05:20:08;;;;;;;17.50;11.82;;;11.00;99.90;;;;;;5054509;28;20465;-75
2021/12/13 05:22:50;;;;;;;23.73;15.20;;;11.00;99.90;;;;;;5053903;28;20071;-80
2021/12/13 05:25:42;;;;;;;18.58;12.20;;;11.00;99.90;;;;;;5053811;28;20028;-78
2021/12/13 05:28:17;;;;;;;18.05;11.85;;;11.00;99.90;;;;;;5053084;28;20091;-78
2021/12/13 05:30:57;;;;;;;19.02;12.18;;;10.90;99.90;;;;;;5053968;28;20048;-77
2021/12/13 05:33:24;;;;;;;19.13;11.13;;;10.90;99.90;;;;;;5053775;28;20385;-77
2021/12/13 05:35:53;;;;;;;15.80;9.65;;;10.90;99.90;;;;;;5053642;28;20500;-78
2021/12/13 05:38:27;;;;;;;15.48;10.55;;;10.90;99.90;;;;;;5053612;28;20021;-76
2021/12/13 05:40:53;;;;;;;14.52;9.75;;;10.80;99.90;;;;;;5053574;28;20021;-74
2021/12/13 05:43:24;;;;;;;13.35;8.85;;;10.80;99.90;;;;;;5052286;28;20082;-78
2021/12/13 05:46:04;;;;;;;14.45;9.43;;;10.80;99.90;;;;;;5053791;28;20477;-77
2021/12/13 05:48:56;;;;;;;16.83;9.30;;;10.80;99.90;;;;;;5053758;28;20388;-79
2021/12/13 05:51:43;;;;;;;14.25;9.55;;;10.70;99.90;;;;;;5053621;28;20036;-76
2021/12/13 05:54:12;;;;;;;13.32;8.57;;;10.70;99.90;;;;;;5054037;28;20029;-78
2021/12/13 05:56:52;;;;;;;14.15;9.80;;;10.70;99.90;;;;;;5053609;28;20017;-77
2021/12/13 05:59:25;;;;;;;14.10;8.48;;;10.80;99.90;;;;;;5053611;28;20108;-77
2021/12/13 06:02:20;;;;;;;12.32;8.02;;;10.80;99.90;;;;;;5052340;28;20423;-76
2021/12/13 06:05:02;;;;;;;12.98;8.32;;;10.80;99.90;;;;;;5052862;28;20048;-78
2021/12/13 06:07:32;;;;;;;15.45;8.88;;;10.80;99.90;;;;;;5053714;28;20032;-78
2021/12/13 06:10:13;;;;;;;13.40;8.15;;;10.70;99.90;;;;;;5053370;28;20108;-74
2021/12/13 06:13:04;;;;;;;14.82;8.40;;;10.80;99.90;;;;;;5053103;28;20036;-80
2021/12/13 06:15:40;;;;;;;12.80;8.43;;;10.70;99.90;;;;;;5053735;28;20017;-74
2021/12/13 06:18:06;;;;;;;12.38;8.07;;;10.70;99.90;;;;;;5053375;28;20143;-79
2021/12/13 06:21:18;;;;;;;12.48;7.85;;;10.70;99.90;;;;;;5053054;28;20096;-80
2021/12/13 06:23:47;;;;;;;14.50;8.73;;;10.80;99.90;;;;;;5052489;28;20029;-77
2021/12/13 06:26:14;;;;;;;15.05;9.82;;;10.80;99.90;;;;;;5052930;28;20017;-79
2021/12/13 06:28:55;;;;;;;18.63;10.90;;;10.70;99.90;;;;;;5052881;28;20053;-76
2021/12/13 06:31:22;;;;;;;21.02;12.52;;;10.60;99.90;;;;;;5053255;28;20086;-78
2021/12/13 06:34:00;;;;;;;22.70;13.93;;;10.60;99.90;;;;;;5052980;28;20040;-77
2021/12/13 06:36:29;;;;;;;19.35;12.05;;;10.60;99.90;;;;;;5053434;28;20025;-76
2021/12/13 06:39:07;;;;;;;19.92;12.75;;;10.60;99.90;;;;;;5051619;28;20397;-78
2021/12/13 06:41:38;;;;;;;20.55;11.50;;;10.60;99.90;;;;;;5053220;28;20487;-78
2021/12/13 06:44:08;;;;;;;16.35;10.25;;;10.60;99.90;;;;;;5052938;28;20021;-77
2021/12/13 06:46:51;;;;;;;15.65;10.10;;;10.50;99.90;;;;;;5053126;28;20040;-79
2021/12/13 06:49:30;;;;;;;11.93;7.90;;;10.50;99.90;;;;;;5053107;28;20051;-78
2021/12/13 06:52:18;;;;;;;13.23;8.02;;;10.40;99.90;;;;;;5052740;28;20029;-75
2021/12/13 06:54:58;;;;;;;13.15;7.45;;;10.40;99.90;;;;;;5053087;28;20080;-76
2021/12/13 06:57:32;;;;;;;12.70;7.32;;;10.30;99.90;;;;;;5053227;28;20334;-78
2021/12/13 07:00:26;;;;;;;13.13;8.00;;;10.20;99.90;;;;;;5051219;28;20400;-78
2021/12/13 07:02:53;;;;;;;12.45;7.50;;;10.10;99.90;;;;;;5051179;28;20063;-75
2021/12/13 07:05:29;;;;;;;11.60;7.13;;;10.10;99.90;;;;;;5052816;28;20489;-78
2021/12/13 07:08:06;;;;;;;14.23;7.88;;;10.10;99.90;;;;;;5052822;28;20025;-76
2021/12/13 07:10:44;;;;;;;13.85;8.55;;;10.20;99.90;;;;;;5052884;28;20036;-76
2021/12/13 07:13:30;;;;;;;13.45;9.13;;;10.20;99.90;;;;;;5052690;28;20021;-78
2021/12/13 07:16:14;;;;;;;13.77;8.43;;;10.20;99.90;;;;;;5056593;28;20024;-80
2021/12/13 07:18:52;;;;;;;14.35;9.48;;;10.10;99.90;;;;;;5056282;28;20485;-77
2021/12/13 07:21:22;;;;;;;15.90;11.77;;;10.10;99.90;;;;;;5056459;28;20047;-78
2021/12/13 07:23:51;;;;;;;;;;;10.10;99.90;;;;;;5056738;28;20022;-78
2021/12/13 07:26:42;;;;;;;13.63;9.20;;;10.10;99.90;;;;;;5056674;28;19962;-76
2021/12/13 07:29:17;;;;;;;12.85;7.93;;;10.20;99.90;;;;;;5055904;28;20047;-79
2021/12/13 07:31:44;;;;;;;13.80;8.02;;;10.20;99.90;;;;;;5056255;28;20139;-76
2021/12/13 07:34:19;;;;;;;13.05;8.27;;;10.20;99.90;;;;;;5056233;28;20032;-76
2021/12/13 07:36:59;;;;;;;12.48;6.45;;;10.10;99.90;;;;;;5056238;28;20094;-74
2021/12/13 07:39:29;;;;;;;9.82;6.40;;;10.10;99.90;;;;;;5056199;28;20488;-76
2021/12/13 07:42:02;;;;;;;6.93;4.25;;;10.10;99.90;;;;;;5056140;28;20499;-76
2021/12/13 07:44:31;;;;;;;8.32;4.00;;;10.10;99.90;;;;;;5056242;28;20065;-76
2021/12/13 07:47:23;;;;;;;6.18;3.75;;;10.00;99.90;;;;;;5055724;28;20025;-77
2021/12/13 07:49:53;;;;;;;8.43;4.45;;;10.00;99.90;;;;;;5055229;28;20041;-77
2021/12/13 07:52:33;;;;;;;7.00;3.90;;;10.00;99.90;;;;;;5055479;28;20025;-78
2021/12/13 07:55:14;;;;;;;5.93;3.72;;;10.10;99.90;;;;;;5056165;28;20096;-79
2021/12/13 07:57:40;;;;;;;7.22;4.07;;;10.10;99.90;;;;;;5055814;28;20056;-78
2021/12/13 08:00:27;;;;;;;7.28;3.60;;;10.10;99.90;;;;;;5052161;28;20497;-79
2021/12/13 08:03:21;;;;;;;6.25;3.60;;;10.10;99.90;;;;;;5035444;28;20108;-77
2021/12/13 08:05:51;;;;;;;6.95;3.92;;;10.10;99.90;;;;;;5035753;28;20025;-78
2021/12/13 08:08:24;;;;;;;8.30;3.47;;;10.10;99.90;;;;;;5035063;28;20026;-75
2021/12/13 08:10:52;;;;;;;6.45;4.32;;;10.10;99.90;;;;;;5042620;28;20377;-77
2021/12/13 08:13:23;;;;;;;6.47;3.85;;;10.10;99.90;;;;;;5055194;28;20032;-76
2021/12/13 08:15:54;;;;;;;7.43;4.90;;;10.10;99.90;;;;;;5054912;28;20032;-79
2021/12/13 08:18:35;;;;;;;7.45;4.00;;;10.10;99.90;;;;;;5055220;28;20021;-77
2021/12/13 08:21:08;;;;;;;7.20;4.47;;;10.10;99.90;;;;;;5052802;28;20025;-77
2021/12/13 08:23:53;;;;;;;9.00;4.60;;;10.10;99.90;;;;;;5055270;28;20025;-76
2021/12/13 08:26:40;;;;;;;8.63;4.88;;;10.20;99.90;;;;;;5052748;28;20493;-76
2021/12/13 08:29:11;;;;;;;6.65;4.53;;;10.20;99.90;;;;;;5056026;28;20056;-78
2021/12/13 08:31:39;;;;;;;8.32;4.65;;;10.20;99.90;;;;;;5065732;28;20029;-78
2021/12/13 08:34:33;;;;;;;9.13;5.75;;;10.20;99.90;;;;;;5054859;28;20027;-75
2021/12/13 08:36:59;;;;;;;17.38;12.18;;;10.20;99.90;;;;;;5054816;28;20021;-78
2021/12/13 08:39:34;;;;;;;9.32;5.50;;;10.20;99.90;;;;;;5067439;28;20035;-77
2021/12/13 08:42:09;;;;;;;8.13;4.90;;;10.10;99.90;;;;;;5061398;28;20036;-75
2021/12/13 08:44:55;;;;;;;7.75;4.70;;;10.00;99.90;;;;;;5058700;28;20543;-77
2021/12/13 08:47:24;;;;;;;8.43;4.78;;;10.00;99.90;;;;;;5067062;28;20020;-80
2021/12/13 08:49:57;;;;;;;8.02;4.50;;;10.00;99.90;;;;;;5071382;28;20029;-77
2021/12/13 08:52:36;;;;;;;7.97;4.55;;;10.10;99.90;;;;;;5056369;28;20036;-74
2021/12/13 08:55:10;;;;;;;8.35;4.65;;;10.10;99.90;;;;;;5054387;28;20107;-79
2021/12/13 08:57:58;;;;;;;8.25;4.72;;;10.10;99.90;;;;;;5051068;28;20104;-75
2021/12/13 09:00:55;;;;;;;8.80;5.35;;;10.10;99.90;;;;;;5038500;28;20393;-76
2021/12/13 09:03:50;;;;;;;10.40;5.88;;;10.00;99.90;;;;;;5034092;28;20030;-77
2021/12/13 09:06:16;;;;;;;9.57;5.88;;;10.00;99.90;;;;;;5037450;28;20029;-73
2021/12/13 09:08:53;;;;;;;8.45;4.85;;;10.00;99.90;;;;;;5034520;28;20036;-75
2021/12/13 09:11:39;;;;;;;9.70;5.75;;;9.90;99.90;;;;;;5034449;28;20033;-76
2021/12/13 09:14:15;;;;;;;8.27;5.47;;;9.90;99.90;;;;;;5043691;28;20044;-79
2021/12/13 09:17:16;;;;;;;9.23;5.40;;;9.90;99.90;;;;;;5054356;28;20090;-82
2021/12/13 09:19:47;;;;;;;9.63;5.63;;;9.90;99.90;;;;;;5047718;28;20027;-77
2021/12/13 09:22:16;;;;;;;8.13;5.05;;;10.00;99.90;;;;;;5054208;28;20025;-77
2021/12/13 09:24:56;;;;;;;8.77;5.18;;;10.00;99.90;;;;;;5038805;28;20080;-80
2021/12/13 09:27:37;;;;;;;8.35;5.63;;;10.00;99.90;;;;;;5033935;28;20120;-80
2021/12/13 09:30:11;;;;;;;9.93;5.50;;;9.90;99.90;;;;;;5051590;28;20033;-81
2021/12/13 09:32:37;;;;;;;9.52;5.38;;;9.90;99.90;;;;;;5054307;28;20033;-76
2021/12/13 09:35:24;;;;;;;8.52;4.90;;;9.90;99.90;;;;;;5051666;28;20112;-76
2021/12/13 09:37:50;;;;;;;10.20;6.10;;;9.80;99.90;;;;;;5053691;28;20031;-75
2021/12/13 09:40:19;;;;;;;10.63;5.72;;;9.70;99.90;;;;;;5039335;28;20076;-74
2021/12/13 09:42:51;;;;;;;8.98;5.47;;;9.80;99.90;;;;;;5033288;28;20490;-72
2021/12/13 09:45:29;;;;;;;8.27;5.10;;;9.80;99.90;;;;;;5033645;28;20386;-74
2021/12/13 09:47:55;;;;;;;8.50;4.82;;;9.80;99.90;;;;;;5034057;28;20021;-74
2021/12/13 09:50:26;;;;;;;8.15;4.78;;;9.80;99.90;;;;;;5033690;28;20029;-73
2021/12/13 09:53:04;;;;;;;7.90;4.80;;;9.80;99.90;;;;;;5041176;28;20112;-76
2021/12/13 09:55:37;;;;;;;9.00;5.90;;;9.80;99.90;;;;;;5053456;28;20358;-74
2021/12/13 09:58:16;;;;;;;8.13;5.38;;;9.80;99.90;;;;;;5044304;28;20025;-77
2021/12/13 10:00:48;;;;;;;11.68;8.00;;;9.80;99.90;;;;;;5033611;28;20116;-76
2021/12/13 10:03:26;;;;;;;8.98;5.78;;;9.90;99.90;;;;;;5048064;28;20032;-73
2021/12/13 10:05:56;;;;;;;11.18;6.03;;;9.90;99.90;;;;;;5053692;28;20146;-76
2021/12/13 10:08:45;;;;;;;9.13;5.93;;;9.90;99.90;;;;;;5051262;28;20032;-76
2021/12/13 10:11:22;;;;;;;10.85;6.53;;;10.00;99.90;;;;;;5032287;28;20413;-77
2021/12/13 10:13:49;;;;;;;13.93;10.02;;;10.00;99.90;;;;;;5033745;28;20022;-77
2021/12/13 10:16:20;;;;;;;11.40;7.20;;;10.00;99.90;;;;;;5033510;28;20052;-77
2021/12/13 10:18:50;;;;;;;14.35;10.73;;;10.10;99.90;;;;;;5033458;28;20029;-79
2021/12/13 10:21:21;;;;;;;11.85;8.05;;;10.20;99.90;;;;;;5051845;28;20111;-75
2021/12/13 10:23:51;;;;;;;12.00;7.45;;;10.20;99.90;;;;;;5053349;28;20393;-76
2021/12/13 10:26:18;;;;;;;9.90;5.93;;;10.20;99.90;;;;;;5033463;28;20537;-82
2021/12/13 10:28:55;;;;;;;10.82;6.97;;;10.10;99.90;;;;;;5032646;28;20047;-79
2021/12/13 10:31:38;;;;;;;12.75;7.32;;;10.10;99.90;;;;;;5045566;28;20036;-75
2021/12/13 10:34:14;;;;;;;10.43;6.72;;;10.10;99.90;;;;;;5051784;28;20481;-77
2021/12/13 10:36:44;;;;;;;12.43;7.50;;;10.10;99.90;;;;;;5037788;28;20084;-75
2021/12/13 10:39:16;;;;;;;11.88;6.90;;;10.10;99.90;;;;;;5032467;28;20022;-77
2021/12/13 10:41:47;;;;;;;11.38;6.90;;;10.10;99.90;;;;;;5032927;28;20033;-80
2021/12/13 10:44:25;;;;;;;14.13;7.32;;;10.20;99.90;;;;;;5035459;28;20025;-78
2021/12/13 10:46:54;;;;;;;14.40;7.70;;;10.20;99.90;;;;;;5053448;28;20470;-78
2021/12/13 10:49:25;;;;;;;11.15;6.88;;;10.10;99.90;;;;;;5053780;28;20414;-75
2021/12/13 10:52:07;;;;;;;13.55;7.40;;;10.10;99.90;;;;;;5036926;28;20029;-73
2021/12/13 10:54:41;;;;;;;12.57;6.80;;;10.10;99.90;;;;;;5037404;28;20033;-79
2021/12/13 10:57:18;;;;;;;12.77;7.50;;;10.20;99.90;;;;;;5037200;28;20033;-77
2021/12/13 10:59:45;;;;;;;11.07;6.75;;;10.20;99.90;;;;;;5041219;28;20104;-74
2021/12/13 11:02:23;;;;;;;10.40;6.15;;;10.20;99.90;;;;;;5056481;28;20025;-77
2021/12/13 11:05:00;;;;;;;12.05;6.95;;;10.20;99.90;;;;;;5056704;28;20025;-78
2021/12/13 11:07:26;;;;;;;11.52;6.85;;;10.30;99.90;;;;;;5056687;28;20115;-79
2021/12/13 11:09:55;;;;;;;10.15;6.57;;;10.40;99.90;;;;;;5050709;28;20088;-79
2021/12/13 11:12:36;;;;;;;9.50;6.03;;;10.40;99.90;;;;;;5040207;28;20123;-81
2021/12/13 11:15:04;;;;;;;;;;;10.40;99.90;;;;;;5039961;28;20080;-81
2021/12/13 11:17:32;;;;;;;17.48;9.18;;;10.50;99.90;;;;;;5036350;28;19905;-76
2021/12/13 11:20:04;;;;;;;24.42;13.30;;;10.50;99.90;;;;;;5041840;28;20025;-80
2021/12/13 11:22:32;;;;;;;58.95;30.20;;;10.50;99.90;;;;;;5036662;28;20017;-79
2021/12/13 11:25:09;;;;;;;19.20;10.02;;;10.60;99.90;;;;;;5035938;28;20075;-78
2021/12/13 11:27:36;;;;;;;33.88;17.50;;;10.60;99.90;;;;;;5036868;28;20124;-76
2021/12/13 11:30:11;;;;;;;9.73;5.43;;;10.60;99.90;;;;;;5036145;28;20097;-75
2021/12/13 11:32:39;;;;;;;17.60;9.07;;;10.40;99.90;;;;;;5046063;28;20048;-77
2021/12/13 11:35:58;;;;;;;10.88;5.75;;;10.40;99.90;;;;;;5052718;28;20048;-76
2021/12/13 11:39:05;;;;;;;9.98;6.07;;;10.40;99.90;;;;;;5058042;28;20025;-76
2021/12/13 11:42:01;;;;;;;10.70;5.55;;;10.40;99.90;;;;;;5073458;28;20082;-72
2021/12/13 11:44:27;;;;;;;11.70;7.47;;;10.40;99.90;;;;;;5037530;28;20132;-72
2021/12/13 11:47:36;;;;;;;26.15;16.73;;;10.40;99.90;;;;;;5035381;28;20057;-74
2021/12/13 11:50:08;;;;;;;20.10;13.60;;;10.40;99.90;;;;;;5035878;28;20025;-73
2021/12/13 11:52:59;;;;;;;15.98;8.20;;;10.60;99.90;;;;;;5035686;28;20029;-74
2021/12/13 11:55:42;;;;;;;15.38;9.98;;;10.50;99.90;;;;;;5035802;28;20022;-74
2021/12/13 11:58:52;;;;;;;14.30;9.07;;;10.50;99.90;;;;;;5034233;28;20075;-73
2021/12/13 12:01:47;;;;;;;17.00;9.25;;;10.50;99.90;;;;;;5036109;28;20466;-74
2021/12/13 12:04:50;;;;;;;14.60;9.23;;;10.60;99.90;;;;;;5036046;28;20025;-72
2021/12/13 12:07:32;;;;;;;11.13;7.00;;;10.50;99.90;;;;;;5035704;28;20029;-73
2021/12/13 12:10:25;;;;;;;14.50;8.82;;;10.50;99.90;;;;;;5035694;28;20468;-73
2021/12/13 12:13:12;;;;;;;13.43;7.40;;;10.40;99.90;;;;;;5035544;28;20034;-72
2021/12/13 12:15:40;;;;;;;10.73;6.53;;;10.50;99.90;;;;;;5035566;28;20385;-74
2021/12/13 12:18:10;;;;;;;16.70;10.35;;;10.60;99.90;;;;;;5035252;28;20022;-74
2021/12/13 12:20:40;;;;;;;14.35;9.55;;;10.50;99.90;;;;;;5035456;28;20022;-75
2021/12/13 12:23:10;;;;;;;;;;;10.60;99.90;;;;;;5035814;28;20128;-74
2021/12/13 12:25:40;;;;;;;13.05;8.63;;;10.60;99.90;;;;;;5035124;28;19909;-73
2021/12/13 12:28:14;;;;;;;15.32;9.80;;;10.80;99.90;;;;;;5034869;28;20041;-72
2021/12/13 12:30:48;;;;;;;14.10;10.25;;;10.80;99.90;;;;;;5035202;28;20036;-74
2021/12/13 12:33:28;;;;;;;12.30;7.60;;;10.80;99.90;;;;;;5035539;28;20022;-73
2021/12/13 12:35:56;;;;;;;11.93;6.85;;;10.80;99.90;;;;;;5035510;28;20032;-73
2021/12/13 12:38:28;;;;;;;17.35;12.10;;;10.70;99.90;;;;;;5034826;28;20060;-71
2021/12/13 12:40:59;;;;;;;11.85;8.00;;;10.80;99.90;;;;;;5034953;28;20108;-73
2021/12/13 12:43:28;;;;;;;13.95;8.80;;;10.90;99.90;;;;;;5035329;28;20018;-74
2021/12/13 12:46:06;;;;;;;12.55;8.75;;;11.00;99.90;;;;;;5035285;28;20025;-72
2021/12/13 12:48:37;;;;;;;13.85;9.27;;;11.00;99.90;;;;;;5035279;28;20048;-73
2021/12/13 12:51:22;;;;;;;17.55;12.63;;;11.00;99.90;;;;;;5034876;28;20041;-73
2021/12/13 12:53:58;;;;;;;11.98;7.72;;;11.00;99.90;;;;;;5034895;28;20024;-71
2021/12/13 12:56:30;;;;;;;10.32;6.75;;;11.00;99.90;;;;;;5033031;28;20029;-74
2021/12/13 12:59:13;;;;;;;11.20;7.30;;;11.00;99.90;;;;;;5034476;28;20032;-72
2021/12/13 13:01:53;;;;;;;11.95;7.03;;;10.90;99.90;;;;;;5034735;28;20099;-74
2021/12/13 13:04:34;;;;;;;14.07;8.73;;;10.80;99.90;;;;;;5034911;28;20079;-72
2021/12/13 13:07:11;;;;;;;26.05;18.20;;;10.80;99.90;;;;;;5034510;28;20072;-73
2021/12/13 13:09:51;;;;;;;32.53;19.70;;;10.90;99.90;;;;;;5034788;28;20036;-73
2021/12/13 13:12:24;;;;;;;20.02;9.23;;;11.00;99.90;;;;;;5033960;28;20067;-75
2021/12/13 13:15:10;;;;;;;11.65;7.68;;;11.10;99.90;;;;;;5050719;28;20071;-75
2021/12/13 13:17:40;;;;;;;12.60;8.27;;;11.10;99.90;;;;;;5054354;28;20484;-78
2021/12/13 13:20:21;;;;;;;16.42;11.43;;;11.10;99.90;;;;;;5034081;28;20028;-78
2021/12/13 13:22:50;;;;;;;11.88;7.85;;;11.10;99.90;;;;;;5035988;28;20124;-75
2021/12/13 13:25:29;;;;;;;11.52;6.95;;;11.10;99.90;;;;;;5053798;28;20044;-78
2021/12/13 13:27:57;;;;;;;11.77;7.25;;;11.10;99.90;;;;;;5053705;28;20045;-80
2021/12/13 13:31:08;;;;;;;11.98;7.75;;;11.10;99.90;;;;;;5034018;28;20021;-78
2021/12/13 13:33:41;;;;;;;12.60;7.70;;;11.10;99.90;;;;;;5037119;28;20055;-78